Time;durP1;ratioP1;P1;durP2;ratioP2;P2;SDS_P1;SDS_P2;PMS_P1;PMS_P2;Temp;Humidity;BMP_temperature;BMP_pressure;BME280_temperature;BME280_humidity;BME280_pressure;Samples;Min_cycle;Max_cycle;Signal;HPM_P1;HPM_P2
2023/06/29 00:00:34;;;;;;;;;;;;;;;26.34;35.64;96809.69;4159784;28;5808;-74
2023/06/29 00:02:37;;;;;;;;;;;;;;;26.33;35.42;96802.66;4166498;28;5728;-74
2023/06/29 00:04:41;;;;;;;;;;;;;;;26.34;35.23;96806.97;4164354;28;5835;-74
2023/06/29 00:06:44;;;;;;;;;;;;;;;26.33;35.74;96799.94;4158104;28;5928;-74
2023/06/29 00:08:48;;;;;;;;;;;;;;;26.31;35.63;96799.44;4157411;28;5768;-74
2023/06/29 00:10:51;;;;;;;;;;;;;;;26.33;35.27;96802.66;4164845;28;5699;-74
2023/06/29 00:12:54;;;;;;;;;;;;;;;26.33;35.73;96800.75;4165647;28;5739;-74
2023/06/29 00:14:58;;;;;;;;;;;;;;;26.34;35.36;96796.13;4151033;28;5756;-74
2023/06/29 00:17:01;;;;;;;;;;;;;;;26.34;35.56;96793.44;4158628;28;5750;-74
2023/06/29 00:19:04;;;;;;;;;;;;;;;26.35;35.59;96795.84;4160518;28;5765;-74
2023/06/29 00:21:07;;;;;;;;;;;;;;;26.34;35.58;96799.66;4160844;28;5082;-74
2023/06/29 00:23:10;;;;;;;;;;;;;;;26.31;35.53;96799.44;4158545;28;5781;-74
2023/06/29 00:25:13;;;;;;;;;;;;;;;26.32;35.88;96795.63;4166999;28;5744;-74
2023/06/29 00:27:16;;;;;;;;;;;;;;;26.32;35.86;96795.63;4166356;28;5815;-74
2023/06/29 00:29:18;;;;;;;;;;;;;;;26.33;35.51;96799.94;4161983;28;5733;-74
2023/06/29 00:31:24;;;;;;;;;;;;;;;26.35;35.78;96800.47;4156315;28;5754;-74
2023/06/29 00:33:27;;;;;;;;;;;;;;;26.33;35.80;96797.25;4162027;28;5740;-74
2023/06/29 00:35:30;;;;;;;;;;;;;;;26.33;35.81;96791.81;4168780;28;5722;-74
2023/06/29 00:37:33;;;;;;;;;;;;;;;26.33;35.88;96794.53;4163511;28;5891;-74
2023/06/29 00:39:36;;;;;;;;;;;;;;;26.32;35.86;96799.16;4166001;28;5751;-74
2023/06/29 00:41:38;;;;;;;;;;;;;;;26.33;35.62;96797.25;4167716;28;5753;-74
2023/06/29 00:43:43;;;;;;;;;;;;;;;26.30;35.57;96789.72;4168122;28;5840;-74
2023/06/29 00:45:46;;;;;;;;;;;;;;;26.29;36.07;96793.53;4162942;28;5745;-74
2023/06/29 00:47:50;;;;;;;;;;;;;;;26.28;35.84;96791.91;4159557;28;5819;-74
2023/06/29 00:49:53;;;;;;;;;;;;;;;26.27;35.88;96792.97;4165663;28;5765;-74
2023/06/29 00:51:57;;;;;;;;;;;;;;;26.26;36.27;96796.78;4169897;28;5843;-74
2023/06/29 00:54:00;;;;;;;;;;;;;;;26.27;36.15;96798.41;4168701;28;5097;-74
2023/06/29 00:56:03;;;;;;;;;;;;;;;26.27;36.22;96798.41;4167457;28;5737;-74
2023/06/29 00:58:06;;;;;;;;;;;;;;;26.26;36.24;96794.09;4165171;28;5740;-74
2023/06/29 01:00:11;;;;;;;;;;;;;;;26.24;36.16;96794.38;4164646;28;5723;-74
2023/06/29 01:02:15;;;;;;;;;;;;;;;26.23;36.25;96795.47;4164024;28;5732;-74
2023/06/29 01:04:22;;;;;;;;;;;;;;;26.20;35.97;96797.97;4165305;28;5724;-74
2023/06/29 01:06:29;;;;;;;;;;;;;;;26.19;36.35;96802.59;4162955;28;5962;-74
2023/06/29 01:08:40;;;;;;;;;;;;;;;26.16;36.38;96805.88;4169020;28;5792;-74
2023/06/29 01:10:46;;;;;;;;;;;;;;;26.15;35.97;96800.75;4168043;28;5832;-74
2023/06/29 01:12:50;;;;;;;;;;;;;;;26.15;36.46;96801.56;4168411;28;5740;-74
2023/06/29 01:14:54;;;;;;;;;;;;;;;26.13;36.39;96798.34;4159402;28;5765;-74
2023/06/29 01:16:59;;;;;;;;;;;;;;;26.12;36.33;96802.16;4168740;28;5728;-74
2023/06/29 01:19:05;;;;;;;;;;;;;;;26.10;36.27;96802.44;4168558;28;5883;-75
2023/06/29 01:21:11;;;;;;;;;;;;;;;26.11;36.37;96793.22;4168630;28;5728;-74
2023/06/29 01:23:23;;;;;;;;;;;;;;;26.10;36.51;96797.03;4163652;28;5852;-74
2023/06/29 01:25:27;;;;;;;;;;;;;;;26.10;36.43;96796.22;4164830;28;5724;-74
2023/06/29 01:27:30;;;;;;;;;;;;;;;26.09;36.23;96792.72;4163112;28;6599;-74
2023/06/29 01:29:34;;;;;;;;;;;;;;;26.09;36.52;96800.03;4160863;28;7725;-74
2023/06/29 01:31:36;;;;;;;;;;;;;;;26.09;36.45;96797.31;4162736;28;5728;-74
2023/06/29 01:33:39;;;;;;;;;;;;;;;26.08;36.51;96795.72;4162042;28;5733;-74
2023/06/29 01:35:43;;;;;;;;;;;;;;;26.07;36.34;96805.75;4157903;28;5852;-74
2023/06/29 01:37:54;;;;;;;;;;;;;;;26.06;36.34;96796.00;4162945;28;6422;-74
2023/06/29 01:40:02;;;;;;;;;;;;;;;26.05;36.83;96791.69;4163021;28;5781;-74
2023/06/29 01:42:08;;;;;;;;;;;;;;;26.07;36.48;96796.81;4164554;28;5820;-74
2023/06/29 01:44:16;;;;;;;;;;;;;;;26.05;36.89;96790.88;4164825;28;5909;-74
2023/06/29 01:46:20;;;;;;;;;;;;;;;26.04;36.80;96802.78;4168013;28;5851;-74
2023/06/29 01:48:24;;;;;;;;;;;;;;;26.02;36.55;96800.38;4168619;28;5719;-74
2023/06/29 01:50:27;;;;;;;;;;;;;;;26.02;36.78;96794.97;4168648;28;5828;-74
2023/06/29 01:52:30;;;;;;;;;;;;;;;26.02;37.09;96796.88;4168621;28;5752;-74
2023/06/29 01:54:34;;;;;;;;;;;;;;;26.00;37.16;96789.03;4168603;28;5764;-74
2023/06/29 01:56:37;;;;;;;;;;;;;;;26.01;37.25;96789.84;4168666;28;5733;-74
2023/06/29 01:58:41;;;;;;;;;;;;;;;25.99;37.32;96790.13;4174267;28;5794;-73
2023/06/29 02:00:44;;;;;;;;;;;;;;;25.99;37.02;96792.84;4170476;28;5834;-74
2023/06/29 02:02:47;;;;;;;;;;;;;;;25.97;37.40;96789.63;4168300;28;5749;-74
2023/06/29 02:04:50;;;;;;;;;;;;;;;25.97;36.95;96781.50;4168269;28;5862;-74
2023/06/29 02:06:53;;;;;;;;;;;;;;;25.95;37.38;96781.00;4168406;28;5740;-74
2023/06/29 02:08:56;;;;;;;;;;;;;;;25.95;36.98;96783.69;4167266;28;5751;-75
2023/06/29 02:10:59;;;;;;;;;;;;;;;25.94;37.40;96784.81;4160489;28;5830;-74
2023/06/29 02:13:01;;;;;;;;;;;;;;;25.93;37.14;96783.16;4168783;28;5740;-74
2023/06/29 02:15:06;;;;;;;;;;;;;;;25.91;37.39;96779.94;4169799;28;5743;-75
2023/06/29 02:17:10;;;;;;;;;;;;;;;25.90;37.49;96783.75;4169094;28;5755;-74
2023/06/29 02:19:13;;;;;;;;;;;;;;;25.89;37.27;96781.34;4161947;28;5761;-74
2023/06/29 02:21:16;;;;;;;;;;;;;;;25.85;37.10;96775.72;4167240;28;6028;-74
2023/06/29 02:23:18;;;;;;;;;;;;;;;25.84;37.31;96779.50;4162032;28;5747;-74
2023/06/29 02:25:21;;;;;;;;;;;;;;;25.83;37.33;96788.75;4164466;28;5743;-74
2023/06/29 02:27:24;;;;;;;;;;;;;;;25.84;37.40;96784.94;4162286;28;5725;-75
2023/06/29 02:29:28;;;;;;;;;;;;;;;25.83;37.03;96786.84;4165010;28;5856;-74
2023/06/29 02:31:32;;;;;;;;;;;;;;;25.82;37.02;96787.09;4165061;28;6406;-74
2023/06/29 02:33:35;;;;;;;;;;;;;;;25.80;37.55;96779.28;4160311;28;5737;-74
2023/06/29 02:35:38;;;;;;;;;;;;;;;25.79;37.12;96787.69;4161489;28;6043;-74
2023/06/29 02:37:41;;;;;;;;;;;;;;;25.77;37.56;96784.47;4162172;28;5761;-74
2023/06/29 02:39:44;;;;;;;;;;;;;;;25.76;37.18;96788.28;4159826;28;5943;-74
2023/06/29 02:41:47;;;;;;;;;;;;;;;25.72;37.16;96790.78;4162343;28;5911;-74
2023/06/29 02:43:49;;;;;;;;;;;;;;;25.68;37.67;96792.41;4156157;28;5785;-74
2023/06/29 02:45:52;;;;;;;;;;;;;;;25.63;37.27;96791.66;4167970;28;5848;-74
2023/06/29 02:47:56;;;;;;;;;;;;;;;25.55;37.26;96787.69;4168110;28;5725;-74
2023/06/29 02:50:00;;;;;;;;;;;;;;;25.49;37.47;96786.16;4160671;28;5729;-74
2023/06/29 02:52:03;;;;;;;;;;;;;;;25.50;37.89;96788.56;4164042;28;5830;-74
2023/06/29 02:54:06;;;;;;;;;;;;;;;25.52;37.52;96788.28;4159987;28;5745;-74
2023/06/29 02:56:09;;;;;;;;;;;;;;;25.49;37.69;96784.25;4167092;28;5807;-74
2023/06/29 02:58:12;;;;;;;;;;;;;;;25.48;37.37;96788.06;4166931;28;5736;-74
2023/06/29 03:00:16;;;;;;;;;;;;;;;25.45;37.53;96785.91;4163617;28;5769;-74
2023/06/29 03:02:19;;;;;;;;;;;;;;;25.42;37.90;96777.56;4152977;28;5807;-74
2023/06/29 03:04:24;;;;;;;;;;;;;;;25.41;37.66;96787.59;4162775;28;5815;-74
2023/06/29 03:06:26;;;;;;;;;;;;;;;25.39;37.50;96788.97;4162312;28;5846;-74
2023/06/29 03:08:29;;;;;;;;;;;;;;;25.36;37.75;96784.91;4166702;28;5729;-74
2023/06/29 03:10:32;;;;;;;;;;;;;;;25.35;37.93;96782.50;4165729;28;5821;-74
2023/06/29 03:12:35;;;;;;;;;;;;;;;25.36;37.90;96784.91;4165989;28;5751;-74
2023/06/29 03:14:38;;;;;;;;;;;;;;;25.37;37.78;96788.44;4162578;28;5831;-74
2023/06/29 03:16:42;;;;;;;;;;;;;;;25.36;38.06;96787.63;4154916;28;5768;-74
2023/06/29 03:18:45;;;;;;;;;;;;;;;25.35;38.00;96791.44;4165211;28;5899;-74
2023/06/29 03:20:50;;;;;;;;;;;;;;;25.32;37.98;96788.50;4160548;28;5911;-74
2023/06/29 03:22:53;;;;;;;;;;;;;;;25.29;38.18;96795.28;4161092;28;7755;-74
2023/06/29 03:24:55;;;;;;;;;;;;;;;25.29;38.68;96789.88;4162101;28;5105;-74
2023/06/29 03:26:58;;;;;;;;;;;;;;;25.31;38.61;96793.09;4163111;28;5914;-74
2023/06/29 03:29:01;;;;;;;;;;;;;;;25.33;38.17;96798.22;4156908;28;5750;-73
2023/06/29 03:31:04;;;;;;;;;;;;;;;25.33;38.48;96793.63;4165684;28;5825;-73
2023/06/29 03:33:08;;;;;;;;;;;;;;;25.37;38.24;96802.78;4160484;28;5754;-73
2023/06/29 03:35:10;;;;;;;;;;;;;;;25.41;38.62;96797.59;4163605;28;6018;-73
2023/06/29 03:37:15;;;;;;;;;;;;;;;25.39;38.81;96795.19;4154302;28;7115;-69
2023/06/29 03:39:18;;;;;;;;;;;;;;;25.36;38.48;96806.56;4165123;28;5844;-69
2023/06/29 03:41:20;;;;;;;;;;;;;;;25.32;38.66;96810.16;4169250;28;5815;-70
2023/06/29 03:43:23;;;;;;;;;;;;;;;25.31;38.83;96803.94;4165227;28;6010;-76
2023/06/29 03:45:26;;;;;;;;;;;;;;;25.30;38.60;96799.63;4167209;28;5735;-75
2023/06/29 03:47:29;;;;;;;;;;;;;;;25.30;38.96;96796.91;4165696;28;5718;-84
2023/06/29 03:49:32;;;;;;;;;;;;;;;25.34;39.07;96797.94;4173966;28;5715;-76
2023/06/29 03:51:35;;;;;;;;;;;;;;;25.35;39.02;96802.25;4164492;28;5814;-76
2023/06/29 03:53:39;;;;;;;;;;;;;;;25.36;38.98;96803.84;4164553;28;5775;-78
2023/06/29 03:55:44;;;;;;;;;;;;;;;25.37;38.93;96800.09;4161707;28;6437;-82
2023/06/29 03:57:48;;;;;;;;;;;;;;;25.40;39.33;96802.22;4160810;28;5858;-70
2023/06/29 03:59:51;;;;;;;;;;;;;;;25.41;39.20;96806.53;4167991;28;5855;-70
2023/06/29 04:01:54;;;;;;;;;;;;;;;25.42;38.97;96800.03;4161863;28;5749;-73
2023/06/29 04:03:57;;;;;;;;;;;;;;;25.41;39.21;96798.41;4163610;28;5811;-76
2023/06/29 04:06:00;;;;;;;;;;;;;;;25.41;39.08;96803.81;4165622;28;5835;-78
2023/06/29 04:08:04;;;;;;;;;;;;;;;25.41;39.24;96801.13;4164224;28;6031;-71
2023/06/29 04:10:09;;;;;;;;;;;;;;;25.44;39.46;96805.13;4171200;28;6611;-75
2023/06/29 04:12:12;;;;;;;;;;;;;;;25.44;39.14;96803.22;4167445;28;5782;-74
2023/06/29 04:14:15;;;;;;;;;;;;;;;25.44;39.61;96797.03;4171062;28;5820;-75
2023/06/29 04:16:18;;;;;;;;;;;;;;;25.44;39.50;96805.13;4167154;28;5818;-74
2023/06/29 04:18:21;;;;;;;;;;;;;;;25.42;39.51;96801.91;4167221;28;5843;-78
2023/06/29 04:20:24;;;;;;;;;;;;;;;25.41;39.76;96801.13;4167079;28;5934;-76
2023/06/29 04:22:26;;;;;;;;;;;;;;;25.39;39.58;96789.78;4164087;28;5855;-75
2023/06/29 04:24:29;;;;;;;;;;;;;;;25.38;40.06;96799.00;4169492;28;5711;-74
2023/06/29 04:26:35;;;;;;;;;;;;;;;25.39;39.98;96789.78;4169462;28;5759;-85
2023/06/29 04:28:38;;;;;;;;;;;;;;;25.40;39.86;96790.59;4170460;28;6531;-76
2023/06/29 04:30:41;;;;;;;;;;;;;;;25.42;40.09;96799.22;4169215;28;6412;-78
2023/06/29 04:32:44;;;;;;;;;;;;;;;25.43;40.10;96801.63;4173224;28;5839;-71
2023/06/29 04:34:47;;;;;;;;;;;;;;;25.41;40.21;96798.41;4168327;28;5180;-81
2023/06/29 04:36:50;;;;;;;;;;;;;;;25.41;39.93;96795.69;4169557;28;5814;-73
2023/06/29 04:38:53;;;;;;;;;;;;;;;25.42;40.21;96793.81;4166129;28;6572;-71
2023/06/29 04:41:03;;;;;;;;;;;;;;;25.44;40.18;96797.81;4165648;28;5735;-72
2023/06/29 04:43:08;;;;;;;;;;;;;;;25.45;40.29;96794.03;4167816;28;6015;-72
2023/06/29 04:45:17;;;;;;;;;;;;;;;25.47;40.25;96801.84;4171633;28;5815;-74
2023/06/29 04:47:21;;;;;;;;;;;;;;;25.46;39.93;96795.63;4167881;28;5819;-75
2023/06/29 04:49:27;;;;;;;;;;;;;;;25.45;40.38;96795.91;4166534;28;5826;-71
2023/06/29 04:51:30;;;;;;;;;;;;;;;25.45;40.57;96802.13;4171865;28;5851;-74
2023/06/29 04:53:34;;;;;;;;;;;;;;;25.47;40.38;96802.66;4167654;28;5731;-73
2023/06/29 04:55:38;;;;;;;;;;;;;;;25.49;40.14;96800.50;4171940;28;5852;-73
2023/06/29 04:57:41;;;;;;;;;;;;;;;25.51;40.57;96803.72;4169593;28;5125;-72
2023/06/29 04:59:45;;;;;;;;;;;;;;;25.52;40.35;96799.09;4168725;28;5958;-73
2023/06/29 05:01:48;;;;;;;;;;;;;;;25.52;40.61;96804.50;4168613;28;5860;-75
2023/06/29 05:03:51;;;;;;;;;;;;;;;25.52;40.34;96793.69;4169567;28;5890;-81
2023/06/29 05:05:54;;;;;;;;;;;;;;;25.53;40.85;96798.81;4171543;28;5911;-86
2023/06/29 05:07:56;;;;;;;;;;;;;;;25.53;40.77;96793.41;4168948;28;5926;-80
2023/06/29 05:09:59;;;;;;;;;;;;;;;25.54;40.70;96795.00;4171598;28;5806;-85
2023/06/29 05:12:02;;;;;;;;;;;;;;;25.55;40.69;96806.63;4168718;28;5739;-74
2023/06/29 05:14:05;;;;;;;;;;;;;;;25.52;40.58;96799.91;4169426;28;5839;-77
2023/06/29 05:16:09;;;;;;;;;;;;;;;25.50;41.23;96806.72;4172587;28;5747;-76
2023/06/29 05:18:12;;;;;;;;;;;;;;;25.51;41.09;96808.31;4170792;28;5728;-72
2023/06/29 05:20:17;;;;;;;;;;;;;;;25.47;40.92;96810.78;4159468;28;5827;-69
2023/06/29 05:22:20;;;;;;;;;;;;;;;25.48;41.23;96809.72;4166156;28;5815;-69
2023/06/29 05:24:22;;;;;;;;;;;;;;;25.53;41.43;96803.41;4168149;28;5744;-69
2023/06/29 05:26:25;;;;;;;;;;;;;;;25.59;41.39;96798.72;4166760;28;6049;-69
2023/06/29 05:28:28;;;;;;;;;;;;;;;25.63;41.34;96799.78;4160547;28;5958;-69
2023/06/29 05:30:31;;;;;;;;;;;;;;;25.68;40.97;96805.94;4164636;28;5811;-70
2023/06/29 05:32:36;;;;;;;;;;;;;;;25.74;41.53;96801.31;4158975;28;5963;-69
2023/06/29 05:34:38;;;;;;;;;;;;;;;25.80;41.18;96802.84;4164753;28;5855;-69
2023/06/29 05:36:41;;;;;;;;;;;;;;;25.88;41.40;96804.91;4166793;28;5729;-69
2023/06/29 05:38:44;;;;;;;;;;;;;;;25.91;41.19;96798.09;4165639;28;5737;-69
2023/06/29 05:40:48;;;;;;;;;;;;;;;25.92;41.39;96792.38;4166805;28;5740;-70
2023/06/29 05:42:51;;;;;;;;;;;;;;;26.01;41.19;96801.47;4161184;28;5745;-69
2023/06/29 05:44:55;;;;;;;;;;;;;;;26.07;41.53;96802.22;4168936;28;5741;-69
2023/06/29 05:46:58;;;;;;;;;;;;;;;26.11;41.25;96795.91;4163746;28;5849;-71
2023/06/29 05:49:03;;;;;;;;;;;;;;;26.16;41.20;96803.16;4168994;28;5847;-70
2023/06/29 05:51:06;;;;;;;;;;;;;;;26.19;41.18;96804.50;4168719;28;6508;-70
2023/06/29 05:53:08;;;;;;;;;;;;;;;26.28;41.06;96808.16;4165949;28;7770;-64
2023/06/29 05:55:11;;;;;;;;;;;;;;;26.38;41.24;96808.03;4164916;28;5859;-64
2023/06/29 05:57:15;;;;;;;;;;;;;;;26.48;40.95;96813.28;4163447;28;5752;-63
2023/06/29 05:59:18;;;;;;;;;;;;;;;26.52;41.02;96810.81;4168537;28;5729;-64
2023/06/29 06:01:21;;;;;;;;;;;;;;;26.57;41.14;96818.84;4168459;28;5736;-64
2023/06/29 06:03:24;;;;;;;;;;;;;;;26.62;41.01;96819.59;4168646;28;5835;-64
2023/06/29 06:05:28;;;;;;;;;;;;;;;26.67;41.05;96816.78;4168459;28;5212;-64
2023/06/29 06:07:34;;;;;;;;;;;;;;;26.70;41.03;96818.91;4168534;28;5741;-64
2023/06/29 06:09:37;;;;;;;;;;;;;;;26.74;41.12;96819.13;4168472;28;5439;-64
2023/06/29 06:11:40;;;;;;;;;;;;;;;26.74;40.88;96821.06;4168593;28;5720;-65
2023/06/29 06:13:43;;;;;;;;;;;;;;;26.74;40.73;96823.75;4168569;28;5733;-65
2023/06/29 06:15:46;;;;;;;;;;;;;;;26.75;40.69;96822.66;4168446;28;5819;-65
2023/06/29 06:17:49;;;;;;;;;;;;;;;26.74;40.98;96824.56;4168286;28;5732;-65
2023/06/29 06:19:54;;;;;;;;;;;;;;;26.75;41.01;96819.94;4168398;28;5849;-65
2023/06/29 06:21:59;;;;;;;;;;;;;;;26.74;40.89;96826.47;4168420;28;5826;-64
2023/06/29 06:24:01;;;;;;;;;;;;;;;26.74;40.98;96821.06;4168037;28;5957;-64
2023/06/29 06:26:04;;;;;;;;;;;;;;;26.75;41.07;96820.75;4168285;28;5846;-65
2023/06/29 06:28:07;;;;;;;;;;;;;;;26.76;41.03;96824.25;4167590;28;5739;-64
2023/06/29 06:30:11;;;;;;;;;;;;;;;26.75;40.83;96819.94;4168157;28;5712;-64
2023/06/29 06:32:14;;;;;;;;;;;;;;;26.74;40.93;96823.75;4168155;28;5834;-64
2023/06/29 06:34:17;;;;;;;;;;;;;;;26.71;41.19;96814.28;4168402;28;5744;-64
2023/06/29 06:36:20;;;;;;;;;;;;;;;26.73;40.91;96824.84;4168019;28;5832;-65
2023/06/29 06:38:24;;;;;;;;;;;;;;;26.73;41.16;96827.53;4168366;28;5721;-64
2023/06/29 06:40:47;;;;;;;;;;;;;;;26.73;41.13;96827.53;4168208;28;5743;-65
2023/06/29 06:42:50;;;;;;;;;;;;;;;26.75;40.86;96830.78;4168186;28;5760;-65
2023/06/29 06:44:54;;;;;;;;;;;;;;;26.75;40.67;96828.88;4168139;28;5736;-64
2023/06/29 06:46:57;;;;;;;;;;;;;;;26.77;41.00;96828.59;4168219;28;5729;-64
2023/06/29 06:49:00;;;;;;;;;;;;;;;26.79;40.74;96826.38;4167903;28;5725;-64
2023/06/29 06:51:04;;;;;;;;;;;;;;;26.81;40.38;96824.16;4167815;28;5740;-64
2023/06/29 06:53:07;;;;;;;;;;;;;;;26.85;40.52;96819.78;4167866;28;5781;-64
2023/06/29 06:55:11;;;;;;;;;;;;;;;26.88;40.25;96822.69;4167616;28;5843;-62
2023/06/29 06:57:14;;;;;;;;;;;;;;;26.92;40.13;96825.63;4167577;28;5745;-64
2023/06/29 06:59:17;;;;;;;;;;;;;;;26.96;39.98;96826.66;4167708;28;5740;-64
2023/06/29 07:01:22;;;;;;;;;;;;;;;26.99;40.13;96823.31;4167812;28;5727;-63
2023/06/29 07:03:25;;;;;;;;;;;;;;;27.03;40.28;96832.50;4167728;28;5936;-65
2023/06/29 07:05:29;;;;;;;;;;;;;;;27.03;39.83;96821.66;4167416;28;5725;-63
2023/06/29 07:07:32;;;;;;;;;;;;;;;27.01;39.72;96823.84;4167593;28;5740;-64
2023/06/29 07:09:35;;;;;;;;;;;;;;;26.98;39.68;96827.16;4167539;28;5761;-64
2023/06/29 07:11:41;;;;;;;;;;;;;;;26.97;39.82;96829.06;4167602;28;5877;-64
2023/06/29 07:13:44;;;;;;;;;;;;;;;26.97;39.54;96833.69;4167422;28;5822;-64
2023/06/29 07:15:47;;;;;;;;;;;;;;;26.94;39.60;96829.63;4167157;28;5728;-64
2023/06/29 07:17:50;;;;;;;;;;;;;;;26.91;39.88;96829.44;4167643;28;5743;-64
2023/06/29 07:19:53;;;;;;;;;;;;;;;26.86;39.59;96824.91;4167415;28;5852;-62
2023/06/29 07:21:59;;;;;;;;;;;;;;;26.84;39.75;96829.00;4151624;28;5742;-64
2023/06/29 07:24:06;;;;;;;;;;;;;;;26.82;39.92;96823.88;4172885;28;5740;-63
2023/06/29 07:26:10;;;;;;;;;;;;;;;26.81;39.77;96821.47;4167553;28;5732;-64
2023/06/29 07:28:14;;;;;;;;;;;;;;;26.79;39.65;96824.47;4167620;28;5721;-64
2023/06/29 07:30:17;;;;;;;;;;;;;;;26.80;39.83;96823.38;4167382;28;5757;-64
2023/06/29 07:32:21;;;;;;;;;;;;;;;26.78;39.70;96819.34;4167286;28;5729;-64
2023/06/29 07:34:24;;;;;;;;;;;;;;;26.76;39.89;96827.78;4167284;28;5819;-66
2023/06/29 07:36:29;;;;;;;;;;;;;;;26.75;39.86;96826.16;4167315;28;5776;-64
2023/06/29 07:38:31;;;;;;;;;;;;;;;26.74;39.95;96826.47;4167253;28;5724;-64
2023/06/29 07:40:35;;;;;;;;;;;;;;;26.71;39.72;96827.84;4170605;28;5807;-64
2023/06/29 07:42:38;;;;;;;;;;;;;;;26.70;39.62;96827.03;4170705;28;5741;-64
2023/06/29 07:44:44;;;;;;;;;;;;;;;26.70;39.92;96827.03;4170703;28;5881;-65
2023/06/29 07:46:49;;;;;;;;;;;;;;;26.69;40.19;96828.16;4170816;28;5752;-64
2023/06/29 07:48:53;;;;;;;;;;;;;;;26.69;40.08;96830.06;4170619;28;6537;-64
2023/06/29 07:50:56;;;;;;;;;;;;;;;26.66;39.96;96820.63;4170550;28;5730;-64
2023/06/29 07:53:01;;;;;;;;;;;;;;;26.63;40.00;96829.34;4162432;28;5942;-64
2023/06/29 07:55:04;;;;;;;;;;;;;;;26.64;40.05;96835.56;4170277;28;5863;-64
2023/06/29 07:57:07;;;;;;;;;;;;;;;26.63;40.14;96842.09;4170392;28;5845;-63
2023/06/29 07:59:13;;;;;;;;;;;;;;;26.62;40.29;96844.00;4170331;28;5780;-63
2023/06/29 08:01:18;;;;;;;;;;;;;;;26.62;40.28;96852.13;4170604;28;5875;-63
2023/06/29 08:03:21;;;;;;;;;;;;;;;26.61;40.71;96841.56;4170101;28;7743;-63
2023/06/29 08:05:24;;;;;;;;;;;;;;;26.62;40.55;96845.91;4170159;28;5874;-64
2023/06/29 08:07:30;;;;;;;;;;;;;;;26.64;40.88;96843.72;4170681;28;5737;-65
2023/06/29 08:09:33;;;;;;;;;;;;;;;26.63;40.87;96847.53;4170312;28;5724;-65
2023/06/29 08:11:36;;;;;;;;;;;;;;;26.60;41.08;96837.25;4170287;28;5716;-64
2023/06/29 08:13:39;;;;;;;;;;;;;;;26.60;41.52;96846.19;4170212;28;5808;-65
2023/06/29 08:15:42;;;;;;;;;;;;;;;26.60;41.72;96840.75;4169775;28;5725;-65
2023/06/29 08:17:47;;;;;;;;;;;;;;;26.62;41.72;96837.78;4170357;28;5961;-65
2023/06/29 08:19:50;;;;;;;;;;;;;;;26.58;41.42;96829.41;4170484;28;5767;-64
2023/06/29 08:21:55;;;;;;;;;;;;;;;26.59;41.81;96835.63;4169899;28;5739;-65
2023/06/29 08:23:58;;;;;;;;;;;;;;;26.61;41.73;96836.13;4153932;28;5840;-65
2023/06/29 08:26:01;;;;;;;;;;;;;;;26.61;41.76;96833.44;4194211;28;5686;-65
2023/06/29 08:28:04;;;;;;;;;;;;;;;26.60;41.95;96834.53;4169970;28;5725;-63
2023/06/29 08:30:08;;;;;;;;;;;;;;;26.59;41.88;96833.72;4170109;28;5748;-64
2023/06/29 08:32:11;;;;;;;;;;;;;;;26.59;41.91;96828.31;4169779;28;5717;-64
2023/06/29 08:34:16;;;;;;;;;;;;;;;26.61;41.69;96830.72;4169933;28;5915;-64
2023/06/29 08:36:19;;;;;;;;;;;;;;;26.63;41.94;96829.34;4169497;28;5868;-64
2023/06/29 08:38:22;;;;;;;;;;;;;;;26.64;41.53;96828.25;4169898;28;5733;-63
2023/06/29 08:40:27;;;;;;;;;;;;;;;26.63;41.71;96834.75;4169548;28;5753;-64
2023/06/29 08:42:30;;;;;;;;;;;;;;;26.65;41.73;96827.13;4169749;28;7250;-64
2023/06/29 08:44:33;;;;;;;;;;;;;;;26.67;41.93;96829.56;4169896;28;5926;-65
2023/06/29 08:46:39;;;;;;;;;;;;;;;26.67;41.89;96829.56;4169896;28;5089;-65
2023/06/29 08:48:45;;;;;;;;;;;;;;;26.66;42.06;96828.75;4169628;28;5737;-65
2023/06/29 08:50:54;;;;;;;;;;;;;;;26.66;41.75;96817.91;4168911;28;5725;-65
2023/06/29 08:52:57;;;;;;;;;;;;;;;26.64;41.95;96820.09;4169527;28;6504;-64
2023/06/29 08:55:02;;;;;;;;;;;;;;;26.64;41.72;96820.09;4169428;28;5736;-64
2023/06/29 08:57:06;;;;;;;;;;;;;;;26.66;41.72;96817.91;4169866;28;5936;-64
2023/06/29 08:59:09;;;;;;;;;;;;;;;26.67;41.93;96811.38;4169296;28;5745;-64
2023/06/29 09:01:12;;;;;;;;;;;;;;;26.69;41.63;96806.44;4169404;28;5845;-63
2023/06/29 09:03:17;;;;;;;;;;;;;;;26.70;41.71;96813.47;4169663;28;5744;-64
2023/06/29 09:05:21;;;;;;;;;;;;;;;26.72;41.26;96809.66;4169255;28;5729;-64
2023/06/29 09:07:26;;;;;;;;;;;;;;;26.74;41.46;96812.91;4169444;28;5807;-64
2023/06/29 09:09:29;;;;;;;;;;;;;;;26.73;41.46;96816.69;4169203;28;5874;-64
2023/06/29 09:11:34;;;;;;;;;;;;;;;26.70;41.33;96808.06;4169215;28;5737;-64
2023/06/29 09:13:37;;;;;;;;;;;;;;;26.72;41.12;96809.66;4169378;28;5732;-64
2023/06/29 09:15:41;;;;;;;;;;;;;;;26.68;41.14;96807.56;4169218;28;5729;-64
2023/06/29 09:17:45;;;;;;;;;;;;;;;26.70;41.31;96796.41;4169197;28;5777;-64
2023/06/29 09:19:54;;;;;;;;;;;;;;;26.72;41.16;96796.13;4169224;28;5945;-65
2023/06/29 09:21:58;;;;;;;;;;;;;;;26.70;40.92;96799.94;4169309;28;7729;-64
2023/06/29 09:24:04;;;;;;;;;;;;;;;26.73;40.82;96808.56;4161582;28;5096;-64
2023/06/29 09:26:08;;;;;;;;;;;;;;;26.74;41.02;96812.91;4169141;28;5745;-64
2023/06/29 09:28:13;;;;;;;;;;;;;;;26.77;41.04;96807.69;4169137;28;5811;-65
2023/06/29 09:30:18;;;;;;;;;;;;;;;26.80;40.86;96800.88;4169066;28;5946;-65
2023/06/29 09:32:21;;;;;;;;;;;;;;;26.83;40.75;96805.69;4169043;28;5736;-65
2023/06/29 09:34:26;;;;;;;;;;;;;;;26.84;40.75;96810.00;4169067;28;5720;-65
2023/06/29 09:36:29;;;;;;;;;;;;;;;26.82;40.75;96804.88;4168694;28;5753;-64
2023/06/29 09:38:32;;;;;;;;;;;;;;;26.83;40.72;96800.25;4169082;28;5732;-65
2023/06/29 09:40:49;;;;;;;;;;;;;;;26.85;40.73;96795.38;4168686;28;6245;-65
2023/06/29 09:42:52;;;;;;;;;;;;;;;26.84;40.87;96799.16;4168661;28;5831;-65
2023/06/29 09:44:55;;;;;;;;;;;;;;;26.81;40.63;96794.34;4168714;28;6544;-65
2023/06/29 09:47:05;;;;;;;;;;;;;;;26.83;40.89;96798.34;4160509;28;6438;-65
2023/06/29 09:49:11;;;;;;;;;;;;;;;26.83;40.69;96789.41;4169033;28;5732;-65
2023/06/29 09:51:19;;;;;;;;;;;;;;;26.84;40.87;96791.84;4168907;28;5799;-65
2023/06/29 09:53:30;;;;;;;;;;;;;;;26.86;40.70;96799.69;4168630;28;5724;-64
2023/06/29 09:55:33;;;;;;;;;;;;;;;26.89;40.67;96789.03;4168567;28;5838;-65
2023/06/29 09:57:40;;;;;;;;;;;;;;;26.91;40.59;96786.84;4168728;28;5748;-64
2023/06/29 09:59:44;;;;;;;;;;;;;;;26.92;40.55;96785.72;4168627;28;5728;-65
2023/06/29 10:01:48;;;;;;;;;;;;;;;26.94;40.59;96785.44;4168672;28;5728;-66
2023/06/29 10:03:51;;;;;;;;;;;;;;;26.95;40.75;96787.03;4168570;28;5721;-65
2023/06/29 10:05:57;;;;;;;;;;;;;;;26.95;40.74;96787.03;4168158;28;5843;-63
2023/06/29 10:08:04;;;;;;;;;;;;;;;26.95;40.63;96781.59;4168417;28;5735;-64
2023/06/29 10:10:11;;;;;;;;;;;;;;;26.96;40.60;96786.75;4168231;28;6417;-64
2023/06/29 10:12:17;;;;;;;;;;;;;;;26.98;40.80;96787.25;4168164;28;7193;-63
2023/06/29 10:14:23;;;;;;;;;;;;;;;27.01;40.51;96785.84;4168450;28;5838;-64
2023/06/29 10:16:26;;;;;;;;;;;;;;;27.05;40.39;96780.66;4168210;28;5759;-65
2023/06/29 10:18:34;;;;;;;;;;;;;;;27.04;40.48;96785.28;4168335;28;5744;-65
2023/06/29 10:20:39;;;;;;;;;;;;;;;27.06;40.63;96780.34;4168447;28;5721;-64
2023/06/29 10:22:45;;;;;;;;;;;;;;;27.07;40.58;96784.69;4168491;28;5864;-64
2023/06/29 10:24:52;;;;;;;;;;;;;;;27.02;40.26;96779.34;4168467;28;5731;-63
2023/06/29 10:26:56;;;;;;;;;;;;;;;27.04;40.52;96781.75;4168364;28;5740;-64
2023/06/29 10:28:59;;;;;;;;;;;;;;;27.06;40.24;96777.63;4168236;28;5839;-65
2023/06/29 10:31:04;;;;;;;;;;;;;;;27.06;40.10;96774.94;4168067;28;5721;-65
2023/06/29 10:33:10;;;;;;;;;;;;;;;27.09;40.21;96777.06;4168217;28;6430;-66
2023/06/29 10:35:16;;;;;;;;;;;;;;;27.14;40.12;96768.81;4167617;28;5851;-65
2023/06/29 10:37:31;;;;;;;;;;;;;;;27.17;40.20;96770.91;4168082;28;5740;-65
2023/06/29 10:39:40;;;;;;;;;;;;;;;27.19;40.33;96760.59;4167881;28;5748;-65
2023/06/29 10:41:43;;;;;;;;;;;;;;;27.18;39.93;96760.88;4168160;28;6433;-65
2023/06/29 10:43:58;;;;;;;;;;;;;;;27.16;40.00;96760.38;4167975;28;5919;-65
2023/06/29 10:46:01;;;;;;;;;;;;;;;27.15;40.11;96754.13;4168118;28;5832;-63
2023/06/29 10:48:07;;;;;;;;;;;;;;;27.14;40.21;96760.66;4167983;28;5795;-64
2023/06/29 10:50:18;;;;;;;;;;;;;;;27.13;40.22;96755.56;4168042;28;5740;-63
2023/06/29 10:52:25;;;;;;;;;;;;;;;27.14;40.29;96755.25;4167863;28;5744;-66
2023/06/29 10:54:28;;;;;;;;;;;;;;;27.18;39.80;96753.56;4168070;28;5744;-66